sensor_id;sensor_type;location;lat;lon;timestamp;P1;P2;P0
72918;PMS7003;61063;55.700;26.994;2023-02-28T00:02:11;4.9;3.3;2.2
72918;PMS7003;61063;55.700;26.994;2023-02-28T00:06:27;5.1;3.2;2.2
72918;PMS7003;61063;55.700;26.994;2023-02-28T00:11:41;4.5;3;2
72918;PMS7003;61063;55.700;26.994;2023-02-28T00:16:20;5;3.3;2.3
72918;PMS7003;61063;55.700;26.994;2023-02-28T00:21:53;6.6;3.9;2.8
72918;PMS7003;61063;55.700;26.994;2023-02-28T00:27:09;6.3;4.6;3.6
72918;PMS7003;61063;55.700;26.994;2023-02-28T00:31:39;7.2;4;2.9
72918;PMS7003;61063;55.700;26.994;2023-02-28T00:36:53;6.5;3.9;2.8
72918;PMS7003;61063;55.700;26.994;2023-02-28T00:41:19;6;3.6;2.4
72918;PMS7003;61063;55.700;26.994;2023-02-28T00:46:33;5.9;4.5;3.3
72918;PMS7003;61063;55.700;26.994;2023-02-28T00:51:47;4.9;2.7;1.9
72918;PMS7003;61063;55.700;26.994;2023-02-28T00:57:11;6.1;3.9;3
72918;PMS7003;61063;55.700;26.994;2023-02-28T01:01:33;5.5;3.1;2.2
72918;PMS7003;61063;55.700;26.994;2023-02-28T01:06:19;5.5;3.5;2.5
72918;PMS7003;61063;55.700;26.994;2023-02-28T01:12:01;5.4;3.4;2.4
72918;PMS7003;61063;55.700;26.994;2023-02-28T01:16:31;5.3;2.5;1.8
72918;PMS7003;61063;55.700;26.994;2023-02-28T01:22:11;6.8;4.2;3
72918;PMS7003;61063;55.700;26.994;2023-02-28T01:26:47;6.3;3.6;2.5
72918;PMS7003;61063;55.700;26.994;2023-02-28T01:31:31;5.4;3.2;2.2
72918;PMS7003;61063;55.700;26.994;2023-02-28T01:36:59;5.5;3;2.2
72918;PMS7003;61063;55.700;26.994;2023-02-28T01:41:45;5.5;3.8;2.6
72918;PMS7003;61063;55.700;26.994;2023-02-28T01:47:11;6.3;3.9;2.7
72918;PMS7003;61063;55.700;26.994;2023-02-28T01:51:20;4.8;3.3;2.3
72918;PMS7003;61063;55.700;26.994;2023-02-28T01:56:41;5.6;2.7;1.8
72918;PMS7003;61063;55.700;26.994;2023-02-28T02:01:59;6.4;3.6;2.8
72918;PMS7003;61063;55.700;26.994;2023-02-28T02:06:47;5.9;3.5;2.7
72918;PMS7003;61063;55.700;26.994;2023-02-28T02:12:14;5.3;2.6;1.9
72918;PMS7003;61063;55.700;26.994;2023-02-28T02:16:34;6.5;4.3;3.2
72918;PMS7003;61063;55.700;26.994;2023-02-28T02:27:13;6.3;4.1;3.1
72918;PMS7003;61063;55.700;26.994;2023-02-28T02:31:53;5.3;3.7;2.6
72918;PMS7003;61063;55.700;26.994;2023-02-28T02:37:14;3.7;2.8;1.9
72918;PMS7003;61063;55.700;26.994;2023-02-28T02:41:33;4.8;3.4;2.5
72918;PMS7003;61063;55.700;26.994;2023-02-28T02:46:28;5.7;3.9;2.8
72918;PMS7003;61063;55.700;26.994;2023-02-28T02:51:21;5.3;3.6;2.4
72918;PMS7003;61063;55.700;26.994;2023-02-28T02:56:31;7.9;5.1;3.6
72918;PMS7003;61063;55.700;26.994;2023-02-28T03:02:10;7.2;4.2;2.8
72918;PMS7003;61063;55.700;26.994;2023-02-28T03:06:19;6.9;4.2;3.1
72918;PMS7003;61063;55.700;26.994;2023-02-28T03:11:34;5.5;3.7;2.4
72918;PMS7003;61063;55.700;26.994;2023-02-28T03:17:02;5.9;3.7;2.5
72918;PMS7003;61063;55.700;26.994;2023-02-28T03:21:49;5.2;3.7;3
72918;PMS7003;61063;55.700;26.994;2023-02-28T03:27:14;5.4;3.9;2.6
72918;PMS7003;61063;55.700;26.994;2023-02-28T03:31:48;4.9;3.5;2.3
72918;PMS7003;61063;55.700;26.994;2023-02-28T03:36:32;5.1;3.4;2.3
72918;PMS7003;61063;55.700;26.994;2023-02-28T03:42:02;4.9;3.5;2.4
72918;PMS7003;61063;55.700;26.994;2023-02-28T03:46:47;6.1;4.2;3
72918;PMS7003;61063;55.700;26.994;2023-02-28T03:52:09;6.6;4.3;3.1
72918;PMS7003;61063;55.700;26.994;2023-02-28T03:56:48;6.4;4.1;2.7
72918;PMS7003;61063;55.700;26.994;2023-02-28T04:01:20;7.4;3.9;2.7
72918;PMS7003;61063;55.700;26.994;2023-02-28T04:07:02;7.6;4.9;3.3
72918;PMS7003;61063;55.700;26.994;2023-02-28T04:11:48;5.1;4.1;2.9
72918;PMS7003;61063;55.700;26.994;2023-02-28T04:17:11;6.8;4.7;3.2
72918;PMS7003;61063;55.700;26.994;2023-02-28T04:21:48;7.1;4.7;3.1
72918;PMS7003;61063;55.700;26.994;2023-02-28T04:26:19;6.4;4.4;3
72918;PMS7003;61063;55.700;26.994;2023-02-28T04:32:01;5.8;4;3
72918;PMS7003;61063;55.700;26.994;2023-02-28T04:36:45;4.9;4.1;3.2
72918;PMS7003;61063;55.700;26.994;2023-02-28T04:42:11;3.7;3;1.9
72918;PMS7003;61063;55.700;26.994;2023-02-28T04:46:47;5.4;3;2.4
72918;PMS7003;61063;55.700;26.994;2023-02-28T04:51:19;3.7;2.9;2
72918;PMS7003;61063;55.700;26.994;2023-02-28T04:56:57;6.5;4.3;3.2
72918;PMS7003;61063;55.700;26.994;2023-02-28T05:01:33;4.3;2.5;1.8
72918;PMS7003;61063;55.700;26.994;2023-02-28T05:07:07;6.1;4.2;3
72918;PMS7003;61063;55.700;26.994;2023-02-28T05:11:45;4.4;3.3;2.5
72918;PMS7003;61063;55.700;26.994;2023-02-28T05:16:19;4.2;2.8;2.2
72918;PMS7003;61063;55.700;26.994;2023-02-28T05:21:49;5.1;3;2.3
72918;PMS7003;61063;55.700;26.994;2023-02-28T05:26:19;5;3.1;2.2
72918;PMS7003;61063;55.700;26.994;2023-02-28T05:32:09;4;3.1;2.2
72918;PMS7003;61063;55.700;26.994;2023-02-28T05:36:55;4.2;2.4;2.1
72918;PMS7003;61063;55.700;26.994;2023-02-28T05:41:38;5.9;3.2;2.6
72918;PMS7003;61063;55.700;26.994;2023-02-28T05:46:59;4.9;3.2;2.4
72918;PMS7003;61063;55.700;26.994;2023-02-28T05:51:51;4.4;3;2.3
72918;PMS7003;61063;55.700;26.994;2023-02-28T05:57:09;5;3;2
72918;PMS7003;61063;55.700;26.994;2023-02-28T06:01:34;3.8;2.2;1.7
72918;PMS7003;61063;55.700;26.994;2023-02-28T06:06:19;4.4;3.3;2.4
72918;PMS7003;61063;55.700;26.994;2023-02-28T06:12:07;5;3.3;2.6
72918;PMS7003;61063;55.700;26.994;2023-02-28T06:16:30;6.2;4.8;3.4
72918;PMS7003;61063;55.700;26.994;2023-02-28T06:22:09;6;4.2;3
72918;PMS7003;61063;55.700;26.994;2023-02-28T06:26:33;5.2;3.7;2.9
72918;PMS7003;61063;55.700;26.994;2023-02-28T06:31:19;4.7;3.3;2.2
72918;PMS7003;61063;55.700;26.994;2023-02-28T06:36:57;5.8;4.6;3.3
72918;PMS7003;61063;55.700;26.994;2023-02-28T06:41:19;5.3;4.2;3.2
72918;PMS7003;61063;55.700;26.994;2023-02-28T06:47:09;4.4;3;2.2
72918;PMS7003;61063;55.700;26.994;2023-02-28T06:52:07;3.3;2.6;1.8
72918;PMS7003;61063;55.700;26.994;2023-02-28T06:56:31;3.8;2.5;1.9
72918;PMS7003;61063;55.700;26.994;2023-02-28T07:01:59;4.2;2.6;2
72918;PMS7003;61063;55.700;26.994;2023-02-28T07:06:29;5;3.4;2.4
72918;PMS7003;61063;55.700;26.994;2023-02-28T07:12:09;3.6;2;1.5
72918;PMS7003;61063;55.700;26.994;2023-02-28T07:16:45;3.6;2.1;1.7
72918;PMS7003;61063;55.700;26.994;2023-02-28T07:21:19;3.1;2.4;1.9
72918;PMS7003;61063;55.700;26.994;2023-02-28T07:27:07;3.2;1.9;1.6
72918;PMS7003;61063;55.700;26.994;2023-02-28T07:31:19;3.2;2;1.6
72918;PMS7003;61063;55.700;26.994;2023-02-28T07:37:09;2.6;1.7;1.3
72918;PMS7003;61063;55.700;26.994;2023-02-28T07:41:45;2.5;1.7;1.2
72918;PMS7003;61063;55.700;26.994;2023-02-28T07:46:29;2.1;1.1;0.9
72918;PMS7003;61063;55.700;26.994;2023-02-28T07:51:59;2.6;2.1;1.6
72918;PMS7003;61063;55.700;26.994;2023-02-28T07:56:19;2.5;1.3;1
72918;PMS7003;61063;55.700;26.994;2023-02-28T08:02:05;2;1.3;0.9
72918;PMS7003;61063;55.700;26.994;2023-02-28T08:06:33;2.7;1.6;1.3
72918;PMS7003;61063;55.700;26.994;2023-02-28T08:11:29;2.5;1.6;1.3
72918;PMS7003;61063;55.700;26.994;2023-02-28T08:16:55;1.4;0.9;0.7
72918;PMS7003;61063;55.700;26.994;2023-02-28T08:21:31;2;1.4;1.1
72918;PMS7003;61063;55.700;26.994;2023-02-28T08:27:07;2.2;1.5;1.2
72918;PMS7003;61063;55.700;26.994;2023-02-28T08:31:45;2.8;1.2;0.9
72918;PMS7003;61063;55.700;26.994;2023-02-28T08:36:39;1.7;1.3;1
72918;PMS7003;61063;55.700;26.994;2023-02-28T08:41:57;2;1.2;0.9
72918;PMS7003;61063;55.700;26.994;2023-02-28T08:47:05;2.1;1.6;1.3
72918;PMS7003;61063;55.700;26.994;2023-02-28T08:52:07;1.9;1.4;1.2
72918;PMS7003;61063;55.700;26.994;2023-02-28T08:56:19;2.5;1.6;1
72918;PMS7003;61063;55.700;26.994;2023-02-28T09:02:08;1.9;1;0.7
72918;PMS7003;61063;55.700;26.994;2023-02-28T09:06:57;1.8;1.2;1
72918;PMS7003;61063;55.700;26.994;2023-02-28T09:11:27;1.7;1.2;0.8
72918;PMS7003;61063;55.700;26.994;2023-02-28T09:17:05;2.7;1.1;0.8
72918;PMS7003;61063;55.700;26.994;2023-02-28T09:21:19;1.6;1.2;0.9
72918;PMS7003;61063;55.700;26.994;2023-02-28T09:27:07;1.3;0.9;0.7
72918;PMS7003;61063;55.700;26.994;2023-02-28T09:31:57;1.9;0.9;0.7
72918;PMS7003;61063;55.700;26.994;2023-02-28T09:36:39;1.5;0.8;0.6
72918;PMS7003;61063;55.700;26.994;2023-02-28T09:42:11;1.4;0.9;0.7
72918;PMS7003;61063;55.700;26.994;2023-02-28T09:46:54;1.6;1.2;1
72918;PMS7003;61063;55.700;26.994;2023-02-28T09:52:07;2.5;1.1;0.8
72918;PMS7003;61063;55.700;26.994;2023-02-28T09:56:58;1.8;1;0.8
72918;PMS7003;61063;55.700;26.994;2023-02-28T10:01:20;1.8;1.3;1
72918;PMS7003;61063;55.700;26.994;2023-02-28T10:07:11;1.4;1.3;0.9
72918;PMS7003;61063;55.700;26.994;2023-02-28T10:11:19;2.1;1.2;1
72918;PMS7003;61063;55.700;26.994;2023-02-28T10:17:10;2.4;1.4;1.1
72918;PMS7003;61063;55.700;26.994;2023-02-28T10:21:59;1.8;1.1;0.8
72918;PMS7003;61063;55.700;26.994;2023-02-28T10:26:29;2;1.4;1.3
72918;PMS7003;61063;55.700;26.994;2023-02-28T10:32:10;1.6;1.1;1
72918;PMS7003;61063;55.700;26.994;2023-02-28T10:36:29;1.3;1.1;0.9
72918;PMS7003;61063;55.700;26.994;2023-02-28T10:42:20;2.7;1.6;0.9
72918;PMS7003;61063;55.700;26.994;2023-02-28T10:46:57;1.7;1.3;1
72918;PMS7003;61063;55.700;26.994;2023-02-28T10:51:18;1.8;1.2;0.9
72918;PMS7003;61063;55.700;26.994;2023-02-28T10:57:06;1.7;1.2;1
72918;PMS7003;61063;55.700;26.994;2023-02-28T11:01:44;1.8;1.2;0.8
72918;PMS7003;61063;55.700;26.994;2023-02-28T11:07:06;1.4;0.9;0.7
72918;PMS7003;61063;55.700;26.994;2023-02-28T11:11:55;1.5;1.2;1
72918;PMS7003;61063;55.700;26.994;2023-02-28T11:16:17;2;1.4;1.1
72918;PMS7003;61063;55.700;26.994;2023-02-28T11:22:05;2;1.5;1.3
72918;PMS7003;61063;55.700;26.994;2023-02-28T11:26:42;2.1;1.3;1.1
72918;PMS7003;61063;55.700;26.994;2023-02-28T11:32:11;1.9;1.6;1.2
72918;PMS7003;61063;55.700;26.994;2023-02-28T11:36:59;1.9;1.6;1.3
72918;PMS7003;61063;55.700;26.994;2023-02-28T11:41:30;2;1.2;0.9
72918;PMS7003;61063;55.700;26.994;2023-02-28T11:47:09;1.8;1.3;1
72918;PMS7003;61063;55.700;26.994;2023-02-28T11:51:45;1.3;0.9;0.6
72918;PMS7003;61063;55.700;26.994;2023-02-28T11:57:10;1.6;1.3;1.1
72918;PMS7003;61063;55.700;26.994;2023-02-28T12:02:02;1.7;0.9;0.8
72918;PMS7003;61063;55.700;26.994;2023-02-28T12:06:28;1.9;0.7;0.6
72918;PMS7003;61063;55.700;26.994;2023-02-28T12:12:10;1.1;0.8;0.6
72918;PMS7003;61063;55.700;26.994;2023-02-28T12:16:21;1.3;0.9;0.6
72918;PMS7003;61063;55.700;26.994;2023-02-28T12:22:12;1.4;0.7;0.4
72918;PMS7003;61063;55.700;26.994;2023-02-28T12:26:33;1.9;1.2;0.9
72918;PMS7003;61063;55.700;26.994;2023-02-28T12:31:18;1.6;1.1;0.7
72918;PMS7003;61063;55.700;26.994;2023-02-28T12:37:10;1.9;1.4;1.1
72918;PMS7003;61063;55.700;26.994;2023-02-28T12:41:45;1.6;1.1;0.8
72918;PMS7003;61063;55.700;26.994;2023-02-28T12:47:11;1.1;1;0.9
72918;PMS7003;61063;55.700;26.994;2023-02-28T12:52:09;0.9;0.8;0.7
72918;PMS7003;61063;55.700;26.994;2023-02-28T12:56:42;1.7;1;0.7
72918;PMS7003;61063;55.700;26.994;2023-02-28T13:02:17;1.6;0.9;0.8
72918;PMS7003;61063;55.700;26.994;2023-02-28T13:06:20;1.4;0.8;0.5
72918;PMS7003;61063;55.700;26.994;2023-02-28T13:11:53;1.2;0.6;0.5
72918;PMS7003;61063;55.700;26.994;2023-02-28T13:17:11;1.5;0.8;0.7
72918;PMS7003;61063;55.700;26.994;2023-02-28T13:21:29;1.5;1.2;0.9
72918;PMS7003;61063;55.700;26.994;2023-02-28T13:27:31;1.8;1;0.9
72918;PMS7003;61063;55.700;26.994;2023-02-28T13:33:13;0.8;0.8;0.6
72918;PMS7003;61063;55.700;26.994;2023-02-28T13:36:57;1.7;1;0.8
72918;PMS7003;61063;55.700;26.994;2023-02-28T13:42:46;1.4;0.8;0.6
72918;PMS7003;61063;55.700;26.994;2023-02-28T13:46:17;1.3;0.8;0.5
72918;PMS7003;61063;55.700;26.994;2023-02-28T13:52:11;1.1;0.8;0.6
72918;PMS7003;61063;55.700;26.994;2023-02-28T13:56:45;1.6;0.7;0.6
72918;PMS7003;61063;55.700;26.994;2023-02-28T14:01:57;1.2;1;0.8
72918;PMS7003;61063;55.700;26.994;2023-02-28T14:07:09;1.2;0.9;0.8
72918;PMS7003;61063;55.700;26.994;2023-02-28T14:11:55;1.4;1.1;0.9
72918;PMS7003;61063;55.700;26.994;2023-02-28T14:17:12;1.3;0.8;0.7
72918;PMS7003;61063;55.700;26.994;2023-02-28T14:21:20;1.3;0.7;0.6
72918;PMS7003;61063;55.700;26.994;2023-02-28T14:27:25;1.4;0.8;0.7
72918;PMS7003;61063;55.700;26.994;2023-02-28T14:32:11;1.3;0.9;0.8
72918;PMS7003;61063;55.700;26.994;2023-02-28T14:36:31;1.9;0.7;0.6
72918;PMS7003;61063;55.700;26.994;2023-02-28T14:42:24;1.5;0.9;0.7
72918;PMS7003;61063;55.700;26.994;2023-02-28T14:46:43;1.2;0.7;0.5
72918;PMS7003;61063;55.700;26.994;2023-02-28T14:52:01;1.5;0.8;0.6
72918;PMS7003;61063;55.700;26.994;2023-02-28T14:57:20;1.1;0.5;0.5
72918;PMS7003;61063;55.700;26.994;2023-02-28T15:01:29;1.4;0.8;0.6
72918;PMS7003;61063;55.700;26.994;2023-02-28T15:07:07;1.5;1.1;0.9
72918;PMS7003;61063;55.700;26.994;2023-02-28T15:11:18;1.9;1.2;0.9
72918;PMS7003;61063;55.700;26.994;2023-02-28T15:16:55;1.6;1.2;1
72918;PMS7003;61063;55.700;26.994;2023-02-28T15:22:11;1.6;1;0.7
72918;PMS7003;61063;55.700;26.994;2023-02-28T15:26:26;2.1;1.4;1.1
72918;PMS7003;61063;55.700;26.994;2023-02-28T15:32:26;1.8;1.3;1
72918;PMS7003;61063;55.700;26.994;2023-02-28T15:36:43;1.1;0.8;0.8
72918;PMS7003;61063;55.700;26.994;2023-02-28T15:42:09;1.3;0.9;0.7
72918;PMS7003;61063;55.700;26.994;2023-02-28T15:47:14;1.6;1;0.8
72918;PMS7003;61063;55.700;26.994;2023-02-28T15:51:17;1.8;1.2;1
72918;PMS7003;61063;55.700;26.994;2023-02-28T15:57:07;2.1;1.2;0.8
72918;PMS7003;61063;55.700;26.994;2023-02-28T16:01:43;2;1.2;0.9
72918;PMS7003;61063;55.700;26.994;2023-02-28T16:06:36;1.9;1;0.7
72918;PMS7003;61063;55.700;26.994;2023-02-28T16:12:08;2;1.3;1
72918;PMS7003;61063;55.700;26.994;2023-02-28T16:16:18;2.6;1.2;0.8
72918;PMS7003;61063;55.700;26.994;2023-02-28T16:22:09;1.5;1.2;0.9
72918;PMS7003;61063;55.700;26.994;2023-02-28T16:26:45;1.7;1;0.8
72918;PMS7003;61063;55.700;26.994;2023-02-28T16:31:53;2.3;1.4;1
72918;PMS7003;61063;55.700;26.994;2023-02-28T16:37:09;1.9;1.2;1.1
72918;PMS7003;61063;55.700;26.994;2023-02-28T16:42:10;2.4;1;0.7
72918;PMS7003;61063;55.700;26.994;2023-02-28T16:47:10;1.6;1;0.7
72918;PMS7003;61063;55.700;26.994;2023-02-28T16:51:43;1.3;1;0.9
72918;PMS7003;61063;55.700;26.994;2023-02-28T16:56:53;2.1;1.3;1
72918;PMS7003;61063;55.700;26.994;2023-02-28T17:02:10;2;1.2;0.9
72918;PMS7003;61063;55.700;26.994;2023-02-28T17:06:18;1.8;1.1;0.9
72918;PMS7003;61063;55.700;26.994;2023-02-28T17:12:09;1.7;1.2;0.9
72918;PMS7003;61063;55.700;26.994;2023-02-28T17:16:55;1.9;1.4;1.1
72918;PMS7003;61063;55.700;26.994;2023-02-28T17:22:09;1.7;1.2;1
72918;PMS7003;61063;55.700;26.994;2023-02-28T17:26:53;1.5;1.1;0.8
72918;PMS7003;61063;55.700;26.994;2023-02-28T17:31:17;2.1;1.1;0.8
72918;PMS7003;61063;55.700;26.994;2023-02-28T17:36:20;1.4;1.1;0.8
72918;PMS7003;61063;55.700;26.994;2023-02-28T17:41:56;1.5;0.9;0.8
72918;PMS7003;61063;55.700;26.994;2023-02-28T17:47:08;1.7;1.1;0.8
72918;PMS7003;61063;55.700;26.994;2023-02-28T17:51:55;1.5;0.9;0.7
72918;PMS7003;61063;55.700;26.994;2023-02-28T17:56:18;2.3;1.2;0.9
72918;PMS7003;61063;55.700;26.994;2023-02-28T18:01:29;2.4;1;0.9
72918;PMS7003;61063;55.700;26.994;2023-02-28T18:06:53;1.7;1.2;1
72918;PMS7003;61063;55.700;26.994;2023-02-28T18:12:07;2.1;1.2;0.9
72918;PMS7003;61063;55.700;26.994;2023-02-28T18:16:55;1.4;0.9;0.7
72918;PMS7003;61063;55.700;26.994;2023-02-28T18:21:29;1.5;1.2;0.9
72918;PMS7003;61063;55.700;26.994;2023-02-28T18:26:57;1.8;1.1;0.9
72918;PMS7003;61063;55.700;26.994;2023-02-28T18:31:54;1.4;0.8;0.7
72918;PMS7003;61063;55.700;26.994;2023-02-28T18:37:09;1.7;1.1;0.9
72918;PMS7003;61063;55.700;26.994;2023-02-28T18:41:55;1.6;1.1;0.9
72918;PMS7003;61063;55.700;26.994;2023-02-28T18:46:29;1.9;0.8;0.7
72918;PMS7003;61063;55.700;26.994;2023-02-28T18:51:18;1.5;1;0.8
72918;PMS7003;61063;55.700;26.994;2023-02-28T18:56:53;1.7;1.2;1
72918;PMS7003;61063;55.700;26.994;2023-02-28T19:02:07;1.4;1.1;1
72918;PMS7003;61063;55.700;26.994;2023-02-28T19:06:55;1.3;0.8;0.6
72918;PMS7003;61063;55.700;26.994;2023-02-28T19:11:17;1.5;0.9;0.6
72918;PMS7003;61063;55.700;26.994;2023-02-28T19:16:43;1.4;1.1;0.9
72918;PMS7003;61063;55.700;26.994;2023-02-28T19:21:55;1.5;1;0.8
72918;PMS7003;61063;55.700;26.994;2023-02-28T19:27:05;1.5;0.9;0.8
72918;PMS7003;61063;55.700;26.994;2023-02-28T19:31:53;1.4;0.5;0.5
72918;PMS7003;61063;55.700;26.994;2023-02-28T19:36:17;1.4;0.6;0.5
72918;PMS7003;61063;55.700;26.994;2023-02-28T19:41:29;0.3;0.2;0.2
72918;PMS7003;61063;55.700;26.994;2023-02-28T19:46:55;1.2;0.7;0.5
72918;PMS7003;61063;55.700;26.994;2023-02-28T19:52:10;0.8;0.6;0.5
72918;PMS7003;61063;55.700;26.994;2023-02-28T19:56:47;1.4;0.7;0.6
72918;PMS7003;61063;55.700;26.994;2023-02-28T20:01:29;0.9;0.5;0.4
72918;PMS7003;61063;55.700;26.994;2023-02-28T20:06:43;1.3;0.8;0.6
72918;PMS7003;61063;55.700;26.994;2023-02-28T20:11:55;1.5;0.9;0.7
72918;PMS7003;61063;55.700;26.994;2023-02-28T20:17:09;1.1;0.7;0.4
72918;PMS7003;61063;55.700;26.994;2023-02-28T20:21:53;1.6;0.8;0.7
72918;PMS7003;61063;55.700;26.994;2023-02-28T20:26:37;1.3;0.8;0.6
72918;PMS7003;61063;55.700;26.994;2023-02-28T20:31:31;1.3;0.8;0.7
72918;PMS7003;61063;55.700;26.994;2023-02-28T20:36:55;1.2;0.9;0.8
72918;PMS7003;61063;55.700;26.994;2023-02-28T20:42:09;1.3;0.9;0.6
72918;PMS7003;61063;55.700;26.994;2023-02-28T20:46:55;1.6;1.2;1
72918;PMS7003;61063;55.700;26.994;2023-02-28T20:51:17;1.2;1.1;0.8
72918;PMS7003;61063;55.700;26.994;2023-02-28T20:56:29;1.5;1;0.8
72918;PMS7003;61063;55.700;26.994;2023-02-28T21:01:55;1.6;1;0.8
72918;PMS7003;61063;55.700;26.994;2023-02-28T21:07:09;1.3;0.8;0.6
72918;PMS7003;61063;55.700;26.994;2023-02-28T21:11:53;1.2;0.6;0.5
72918;PMS7003;61063;55.700;26.994;2023-02-28T21:16:18;1;0.5;0.4
72918;PMS7003;61063;55.700;26.994;2023-02-28T21:21:44;1.4;0.7;0.5
72918;PMS7003;61063;55.700;26.994;2023-02-28T21:26:18;1.5;0.4;0.4
72918;PMS7003;61063;55.700;26.994;2023-02-28T21:32:09;0.6;0.5;0.3
72918;PMS7003;61063;55.700;26.994;2023-02-28T21:36:53;0.7;0.5;0.2
72918;PMS7003;61063;55.700;26.994;2023-02-28T21:41:29;0.4;0.2;0
72918;PMS7003;61063;55.700;26.994;2023-02-28T21:46:29;0.7;0.4;0.3
72918;PMS7003;61063;55.700;26.994;2023-02-28T21:51:18;1.1;0.5;0.3
72918;PMS7003;61063;55.700;26.994;2023-02-28T21:57:09;0.6;0.3;0.2
72918;PMS7003;61063;55.700;26.994;2023-02-28T22:01:53;1;0.5;0.4
72918;PMS7003;61063;55.700;26.994;2023-02-28T22:06:18;0.6;0.3;0.2
72918;PMS7003;61063;55.700;26.994;2023-02-28T22:11:43;1.3;0.4;0.2
72918;PMS7003;61063;55.700;26.994;2023-02-28T22:16:30;0.6;0.1;0.1
72918;PMS7003;61063;55.700;26.994;2023-02-28T22:22:09;0.6;0.1;0
72918;PMS7003;61063;55.700;26.994;2023-02-28T22:26:53;1.2;0.1;0.1
72918;PMS7003;61063;55.700;26.994;2023-02-28T22:31:18;0.9;0.4;0.2
72918;PMS7003;61063;55.700;26.994;2023-02-28T22:36:18;0.9;0.1;0.1
72918;PMS7003;61063;55.700;26.994;2023-02-28T22:41:29;0.2;0;0
72918;PMS7003;61063;55.700;26.994;2023-02-28T22:47:09;0.4;0.1;0
72918;PMS7003;61063;55.700;26.994;2023-02-28T22:51:55;0.3;0.1;0
72918;PMS7003;61063;55.700;26.994;2023-02-28T22:56:29;0.5;0.1;0
72918;PMS7003;61063;55.700;26.994;2023-02-28T23:01:59;0.7;0.1;0
72918;PMS7003;61063;55.700;26.994;2023-02-28T23:06:53;0.4;0.2;0.1
72918;PMS7003;61063;55.700;26.994;2023-02-28T23:12:09;0.5;0.2;0.1
72918;PMS7003;61063;55.700;26.994;2023-02-28T23:16:46;0.5;0;0
72918;PMS7003;61063;55.700;26.994;2023-02-28T23:21:29;0.5;0;0
